createdAt,value
2018-12-02T00:00:19.656Z,15.43
2018-12-02T00:02:47.816Z,17.80
2018-12-02T00:05:15.967Z,16.80
2018-12-02T00:07:44.136Z,16.07
2018-12-02T00:10:12.823Z,14.93
2018-12-02T00:12:40.964Z,15.40
2018-12-02T00:15:17.169Z,15.40
2018-12-02T00:17:45.326Z,14.47
2018-12-02T00:20:14.001Z,15.00
2018-12-02T00:22:42.156Z,15.93
2018-12-02T00:25:11.806Z,16.60
2018-12-02T00:27:40.186Z,14.17
2018-12-02T00:30:10.276Z,14.63
2018-12-02T00:32:38.412Z,16.87
2018-12-02T00:35:07.561Z,15.90
2018-12-02T00:37:35.739Z,15.83
2018-12-02T00:40:05.233Z,12.97
2018-12-02T00:42:33.445Z,14.27
2018-12-02T00:45:01.580Z,14.90
2018-12-02T00:47:29.729Z,15.43
2018-12-02T00:49:57.882Z,16.87
2018-12-02T00:52:26.036Z,16.63
2018-12-02T00:54:54.170Z,16.17
2018-12-02T00:57:22.321Z,15.33
2018-12-02T00:59:50.468Z,17.23
2018-12-02T01:02:18.604Z,17.40
2018-12-02T01:04:46.740Z,17.87
2018-12-02T01:07:14.920Z,18.20
2018-12-02T01:09:43.044Z,18.67
2018-12-02T01:12:11.181Z,18.40
2018-12-02T01:14:39.331Z,18.03
2018-12-02T01:17:07.492Z,16.73
2018-12-02T01:19:35.631Z,18.03
2018-12-02T01:22:03.776Z,17.20
2018-12-02T01:24:31.904Z,13.23
2018-12-02T01:27:00.052Z,16.57
2018-12-02T01:29:28.200Z,16.93
2018-12-02T01:31:56.340Z,16.07
2018-12-02T01:34:24.468Z,17.97
2018-12-02T01:36:52.639Z,18.70
2018-12-02T01:39:20.868Z,18.83
2018-12-02T01:41:49.004Z,18.30
2018-12-02T01:44:17.222Z,20.20
2018-12-02T01:46:45.367Z,18.10
2018-12-02T01:49:13.505Z,19.87
2018-12-02T01:51:41.652Z,19.87
2018-12-02T01:54:09.775Z,22.03
2018-12-02T01:56:37.923Z,20.37
2018-12-02T01:59:06.468Z,16.80
2018-12-02T02:01:34.620Z,20.13
2018-12-02T02:04:02.768Z,20.57
2018-12-02T02:06:30.901Z,21.73
2018-12-02T02:08:59.033Z,27.17
2018-12-02T02:11:27.171Z,20.80
2018-12-02T02:13:55.320Z,24.17
2018-12-02T02:16:23.480Z,23.57
2018-12-02T02:18:51.798Z,25.10
2018-12-02T02:21:19.968Z,20.77
2018-12-02T02:23:48.099Z,21.70
2018-12-02T02:26:16.237Z,21.80
2018-12-02T02:28:44.387Z,19.63
2018-12-02T02:31:12.529Z,19.80
2018-12-02T02:33:40.651Z,20.83
2018-12-02T02:36:08.816Z,19.50
2018-12-02T02:38:36.936Z,18.50
2018-12-02T02:41:05.319Z,19.40
2018-12-02T02:43:33.472Z,17.17
2018-12-02T02:46:01.829Z,17.47
2018-12-02T02:48:29.973Z,16.33
2018-12-02T02:50:58.124Z,16.63
2018-12-02T02:53:26.312Z,16.50
2018-12-02T02:55:54.447Z,17.30
2018-12-02T02:58:22.603Z,17.37
2018-12-02T03:00:50.750Z,17.93
2018-12-02T03:03:18.885Z,16.27
2018-12-02T03:05:47.052Z,12.90
2018-12-02T03:08:15.193Z,14.73
2018-12-02T03:10:43.336Z,15.70
2018-12-02T03:13:11.480Z,14.77
2018-12-02T03:15:39.625Z,14.40
2018-12-02T03:18:07.764Z,14.33
2018-12-02T03:20:35.925Z,14.20
2018-12-02T03:23:04.356Z,15.27
2018-12-02T03:25:32.496Z,14.33
2018-12-02T03:28:00.640Z,13.67
2018-12-02T03:30:28.780Z,13.93
2018-12-02T03:32:56.913Z,14.90
2018-12-02T03:35:26.406Z,15.73
2018-12-02T03:37:55.023Z,15.33
2018-12-02T03:40:26.492Z,15.73
2018-12-02T03:42:54.688Z,14.43
2018-12-02T03:45:23.436Z,15.07
2018-12-02T03:47:51.675Z,14.03
2018-12-02T03:50:20.329Z,13.90
2018-12-02T03:52:48.468Z,13.23
2018-12-02T03:55:16.642Z,12.60
2018-12-02T03:57:44.787Z,13.17
2018-12-02T04:00:13.416Z,12.37
2018-12-02T04:02:41.597Z,11.33
2018-12-02T04:05:10.461Z,11.90
2018-12-02T04:07:38.646Z,10.97
2018-12-02T04:10:08.646Z,10.73
2018-12-02T04:12:36.776Z,10.80
2018-12-02T04:15:06.169Z,11.90
2018-12-02T04:17:34.315Z,10.50
2018-12-02T04:20:02.443Z,10.93
2018-12-02T04:22:30.607Z,10.47
2018-12-02T04:24:58.766Z,10.80
2018-12-02T04:27:26.913Z,11.23
2018-12-02T04:29:55.050Z,10.57
2018-12-02T04:32:23.198Z,10.27
2018-12-02T04:34:51.329Z,10.50
2018-12-02T04:37:19.530Z,8.37
2018-12-02T04:39:47.684Z,7.70
2018-12-02T04:42:15.808Z,7.83
2018-12-02T04:44:43.946Z,8.37
2018-12-02T04:47:12.104Z,9.00
2018-12-02T04:49:40.316Z,8.30
2018-12-02T04:52:08.456Z,6.13
2018-12-02T04:54:36.607Z,4.93
2018-12-02T04:57:05.091Z,4.93
2018-12-02T04:59:33.233Z,4.10
2018-12-02T05:02:01.419Z,4.00
2018-12-02T05:04:29.563Z,3.00
2018-12-02T05:06:57.684Z,3.23
2018-12-02T05:09:25.819Z,3.20
2018-12-02T05:11:53.945Z,3.07
2018-12-02T05:14:22.087Z,2.87
2018-12-02T05:16:50.226Z,2.70
2018-12-02T05:19:18.355Z,2.50
2018-12-02T05:21:46.472Z,2.30
2018-12-02T05:24:14.640Z,2.53
2018-12-02T05:26:42.767Z,2.00
2018-12-02T05:29:10.915Z,2.10
2018-12-02T05:31:39.041Z,2.10
2018-12-02T05:34:07.173Z,2.20
2018-12-02T05:36:35.311Z,2.03
2018-12-02T05:39:03.957Z,2.40
2018-12-02T05:41:37.519Z,2.03
2018-12-02T05:44:05.661Z,3.10
2018-12-02T05:46:33.800Z,3.00
2018-12-02T05:49:01.936Z,3.87
2018-12-02T05:51:30.136Z,4.27
2018-12-02T05:53:58.273Z,3.80
2018-12-02T05:56:26.384Z,4.47
2018-12-02T05:58:54.540Z,5.43
2018-12-02T06:01:22.695Z,6.23
2018-12-02T06:03:51.193Z,6.03
2018-12-02T06:06:19.324Z,6.50
2018-12-02T06:08:47.465Z,6.17
2018-12-02T06:11:15.636Z,5.90
2018-12-02T06:13:43.781Z,6.47
2018-12-02T06:16:11.920Z,6.83
2018-12-02T06:18:40.096Z,7.43
2018-12-02T06:21:08.245Z,7.50
2018-12-02T06:23:36.386Z,7.70
2018-12-02T06:26:04.560Z,6.67
2018-12-02T06:28:32.705Z,6.60
2018-12-02T06:31:00.832Z,7.27
2018-12-02T06:33:28.960Z,6.40
2018-12-02T06:35:57.085Z,6.57
2018-12-02T06:38:25.232Z,5.57
2018-12-02T06:40:53.392Z,5.20
2018-12-02T06:43:21.513Z,3.60
2018-12-02T06:45:49.648Z,3.20
2018-12-02T06:48:17.776Z,3.27
2018-12-02T06:50:45.956Z,3.13
2018-12-02T06:53:14.152Z,4.20
2018-12-02T06:55:47.958Z,2.53
2018-12-02T06:58:26.973Z,4.33
2018-12-02T07:00:58.399Z,2.17
2018-12-02T07:03:37.537Z,4.27
2018-12-02T07:06:06.037Z,3.00
2018-12-02T07:08:34.169Z,2.30
2018-12-02T07:11:02.297Z,2.87
2018-12-02T07:13:30.421Z,2.90
2018-12-02T07:15:58.552Z,2.70
2018-12-02T07:18:27.967Z,1.60
2018-12-02T07:20:56.115Z,2.10
2018-12-02T07:23:28.232Z,2.67
2018-12-02T07:25:57.880Z,2.47
2018-12-02T07:28:26.029Z,1.73
2018-12-02T07:30:54.183Z,4.53
2018-12-02T07:33:22.316Z,2.73
2018-12-02T07:35:50.456Z,3.17
2018-12-02T07:38:23.256Z,2.80
2018-12-02T07:40:51.763Z,3.17
2018-12-02T07:43:19.904Z,2.67
2018-12-02T07:45:48.065Z,2.40
2018-12-02T07:48:16.225Z,2.03
2018-12-02T07:50:44.360Z,1.93
2018-12-02T07:53:12.508Z,1.60
2018-12-02T07:55:40.696Z,1.70
2018-12-02T07:58:15.425Z,1.53
2018-12-02T08:00:43.877Z,2.90
2018-12-02T08:03:12.044Z,2.53
2018-12-02T08:05:40.259Z,3.00
2018-12-02T08:08:08.488Z,2.53
2018-12-02T08:10:36.632Z,1.60
2018-12-02T08:13:05.271Z,1.90
2018-12-02T08:15:33.409Z,2.90
2018-12-02T08:18:01.550Z,2.63
2018-12-02T08:20:29.720Z,2.20
2018-12-02T08:22:57.882Z,2.60
2018-12-02T08:25:26.012Z,2.60
2018-12-02T08:27:54.194Z,2.43
2018-12-02T08:30:24.823Z,2.43
2018-12-02T08:32:53.300Z,1.33
2018-12-02T08:35:23.118Z,1.77
2018-12-02T08:37:52.220Z,2.53
2018-12-02T08:40:20.362Z,1.77
2018-12-02T08:42:48.526Z,1.90
2018-12-02T08:45:17.166Z,2.70
2018-12-02T08:47:45.402Z,2.77
2018-12-02T08:50:14.062Z,1.43
2018-12-02T08:52:42.250Z,2.00
2018-12-02T08:55:10.927Z,2.80
2018-12-02T08:57:39.135Z,2.07
2018-12-02T09:00:10.263Z,1.67
2018-12-02T09:02:38.404Z,1.60
2018-12-02T09:05:08.332Z,1.33
2018-12-02T09:07:36.472Z,2.37
2018-12-02T09:10:07.761Z,2.83
2018-12-02T09:12:35.901Z,2.17
2018-12-02T09:15:04.060Z,1.80
2018-12-02T09:17:32.201Z,1.87
2018-12-02T09:20:00.329Z,2.57
2018-12-02T09:22:28.464Z,4.53
2018-12-02T09:24:56.632Z,4.03
2018-12-02T09:27:24.759Z,3.77
2018-12-02T09:29:52.904Z,3.77
2018-12-02T09:32:21.069Z,2.77
2018-12-02T09:34:49.202Z,2.50
2018-12-02T09:37:17.342Z,2.60
2018-12-02T09:39:45.524Z,5.17
2018-12-02T09:42:13.668Z,4.00
2018-12-02T09:44:41.817Z,2.20
2018-12-02T09:47:10.005Z,2.67
2018-12-02T09:49:38.146Z,2.87
2018-12-02T09:52:06.314Z,2.03
2018-12-02T09:54:34.475Z,2.00
2018-12-02T09:57:02.608Z,2.63
2018-12-02T09:59:30.774Z,2.60
2018-12-02T10:01:58.950Z,1.77
2018-12-02T10:04:27.074Z,2.23
2018-12-02T10:06:55.223Z,2.37
2018-12-02T10:09:23.374Z,3.53
2018-12-02T10:11:51.509Z,2.50
2018-12-02T10:14:19.660Z,2.50
2018-12-02T10:16:47.820Z,2.63
2018-12-02T10:19:15.960Z,1.50
2018-12-02T10:21:44.117Z,2.97
2018-12-02T10:24:12.265Z,1.87
2018-12-02T10:26:40.645Z,2.23
2018-12-02T10:29:08.821Z,2.33
2018-12-02T10:31:36.968Z,3.57
2018-12-02T10:34:05.485Z,2.37
2018-12-02T10:36:33.632Z,2.00
2018-12-02T10:39:01.774Z,1.60
2018-12-02T10:41:29.910Z,2.47
2018-12-02T10:43:58.041Z,1.70
2018-12-02T10:46:26.207Z,2.50
2018-12-02T10:48:54.337Z,1.97
2018-12-02T10:51:22.495Z,2.77
2018-12-02T10:53:50.628Z,2.07
2018-12-02T10:56:18.785Z,1.50
2018-12-02T10:58:46.916Z,1.63
2018-12-02T11:01:17.554Z,2.43
2018-12-02T11:03:46.247Z,1.60
2018-12-02T11:06:19.012Z,2.00
2018-12-02T11:08:47.178Z,2.83
2018-12-02T11:11:15.322Z,2.40
2018-12-02T11:13:43.486Z,1.70
2018-12-02T11:16:11.642Z,2.27
2018-12-02T11:18:39.813Z,2.50
2018-12-02T11:21:07.969Z,2.13
2018-12-02T11:23:36.112Z,3.97
2018-12-02T11:26:04.496Z,1.97
2018-12-02T11:28:32.642Z,2.70
2018-12-02T11:31:00.793Z,2.13
2018-12-02T11:33:28.933Z,2.23
2018-12-02T11:35:57.087Z,3.33
2018-12-02T11:38:25.236Z,2.83
2018-12-02T11:40:53.392Z,2.13
2018-12-02T11:43:22.392Z,2.80
2018-12-02T11:45:50.540Z,2.87
2018-12-02T11:48:18.677Z,2.07
2018-12-02T11:50:46.817Z,2.17
2018-12-02T11:53:14.962Z,2.70
2018-12-02T11:55:43.105Z,1.97
2018-12-02T11:58:11.258Z,2.03
2018-12-02T12:00:40.056Z,1.57
2018-12-02T12:03:08.256Z,3.20
2018-12-02T12:05:36.769Z,2.77
2018-12-02T12:08:05.692Z,2.30
2018-12-02T12:10:33.871Z,2.77
2018-12-02T12:13:02.029Z,3.87
2018-12-02T12:15:30.581Z,2.70
2018-12-02T12:17:59.061Z,1.77
2018-12-02T12:20:34.492Z,2.90
2018-12-02T12:23:02.646Z,3.13
2018-12-02T12:25:30.854Z,2.37
2018-12-02T12:27:59.111Z,1.73
2018-12-02T12:30:28.866Z,1.87
2018-12-02T12:32:57.011Z,3.47
2018-12-02T12:35:25.263Z,1.83
2018-12-02T12:37:53.409Z,2.80
2018-12-02T12:40:22.375Z,1.97
2018-12-02T12:42:54.329Z,2.67
2018-12-02T12:45:22.472Z,3.13
2018-12-02T12:47:50.596Z,4.43
2018-12-02T12:50:18.752Z,4.20
2018-12-02T12:52:46.893Z,2.50
2018-12-02T12:55:16.296Z,3.33
2018-12-02T12:57:44.796Z,2.77
2018-12-02T13:00:14.623Z,2.43
2018-12-02T13:02:42.812Z,2.40
2018-12-02T13:05:12.612Z,2.60
2018-12-02T13:07:40.812Z,3.07
2018-12-02T13:10:10.583Z,2.40
2018-12-02T13:12:38.798Z,2.60
2018-12-02T13:15:08.170Z,2.37
2018-12-02T13:17:36.309Z,1.77
2018-12-02T13:20:06.032Z,1.83
2018-12-02T13:22:34.161Z,1.70
2018-12-02T13:25:02.305Z,2.20
2018-12-02T13:27:30.458Z,2.73
2018-12-02T13:29:58.616Z,2.30
2018-12-02T13:32:26.745Z,2.23
2018-12-02T13:34:54.895Z,1.87
2018-12-02T13:37:23.017Z,2.23
2018-12-02T13:39:51.165Z,1.70
2018-12-02T13:42:19.292Z,2.00
2018-12-02T13:44:47.424Z,1.80
2018-12-02T13:47:15.576Z,1.70
2018-12-02T13:49:43.721Z,2.97
2018-12-02T13:52:11.866Z,2.67
2018-12-02T13:54:40.008Z,1.80
2018-12-02T13:57:08.145Z,1.93
2018-12-02T13:59:36.279Z,1.90
2018-12-02T14:02:04.687Z,1.80
2018-12-02T14:04:32.829Z,1.80
2018-12-02T14:07:01.010Z,1.70
2018-12-02T14:09:29.141Z,1.27
2018-12-02T14:11:57.308Z,2.40
2018-12-02T14:14:25.468Z,1.73
2018-12-02T14:16:56.392Z,1.37
2018-12-02T14:19:24.528Z,1.80
2018-12-02T14:21:52.654Z,1.87
2018-12-02T14:24:20.789Z,2.10
2018-12-02T14:26:49.272Z,1.47
2018-12-02T14:29:18.397Z,1.90
2018-12-02T14:31:50.786Z,2.17
2018-12-02T14:34:18.928Z,1.90
2018-12-02T14:36:47.064Z,1.90
2018-12-02T14:39:15.226Z,2.20
2018-12-02T14:41:43.402Z,1.80
2018-12-02T14:44:11.535Z,1.83
2018-12-02T14:46:39.692Z,1.33
2018-12-02T14:49:07.827Z,1.87
2018-12-02T14:51:36.008Z,1.77
2018-12-02T14:54:04.166Z,2.00
2018-12-02T14:56:32.299Z,1.50
2018-12-02T14:59:00.453Z,1.80
2018-12-02T15:01:28.593Z,2.17
2018-12-02T15:03:56.787Z,1.40
2018-12-02T15:06:24.940Z,1.60
2018-12-02T15:08:53.149Z,1.17
2018-12-02T15:11:21.297Z,2.03
2018-12-02T15:13:49.455Z,1.57
2018-12-02T15:16:17.633Z,1.77
2018-12-02T15:18:45.798Z,1.47
2018-12-02T15:21:13.966Z,2.43
2018-12-02T15:23:42.109Z,2.00
2018-12-02T15:26:10.273Z,2.13
2018-12-02T15:44:17.894Z,1.57
2018-12-02T15:46:46.103Z,1.30
2018-12-02T15:49:14.256Z,1.53
2018-12-02T15:51:42.396Z,2.10
2018-12-02T15:54:10.569Z,1.70
2018-12-02T15:56:38.724Z,2.17
2018-12-02T15:59:08.121Z,1.43
2018-12-02T16:01:36.705Z,1.83
2018-12-02T16:04:05.192Z,2.43
2018-12-02T16:06:33.320Z,1.40
2018-12-02T16:09:01.560Z,1.80
2018-12-02T16:11:29.702Z,1.67
2018-12-02T16:13:57.844Z,1.70
2018-12-02T16:16:26.008Z,2.33
2018-12-02T16:18:54.155Z,2.20
2018-12-02T16:21:22.298Z,2.67
2018-12-02T16:23:50.441Z,1.40
2018-12-02T16:26:18.581Z,2.93
2018-12-02T16:28:46.747Z,2.23
2018-12-02T16:31:14.908Z,2.37
2018-12-02T16:33:43.057Z,1.30
2018-12-02T16:36:11.194Z,2.40
2018-12-02T16:38:39.366Z,3.27
2018-12-02T16:41:07.517Z,2.00
2018-12-02T16:43:35.673Z,2.53
2018-12-02T16:46:03.833Z,2.67
2018-12-02T16:48:31.994Z,2.33
2018-12-02T16:51:00.127Z,2.47
2018-12-02T16:53:28.773Z,3.40
2018-12-02T16:56:05.373Z,3.07
2018-12-02T17:42:39.620Z,3.00
2018-12-02T17:45:08.510Z,1.90
2018-12-02T17:47:36.653Z,2.73
2018-12-02T17:50:07.440Z,2.17
2018-12-02T17:52:35.593Z,3.63
2018-12-02T17:55:03.985Z,2.90
2018-12-02T17:57:32.153Z,2.20
2018-12-02T18:00:00.292Z,2.83
2018-12-02T18:02:28.454Z,2.33
2018-12-02T18:04:56.601Z,2.90
2018-12-02T18:07:24.770Z,3.87
2018-12-02T18:09:55.969Z,3.30
2018-12-02T18:12:24.803Z,3.43
2018-12-02T18:14:52.949Z,2.63
2018-12-02T18:17:21.127Z,2.40
2018-12-02T18:19:49.486Z,2.90
2018-12-02T18:22:17.616Z,1.90
2018-12-02T18:24:45.802Z,3.43
2018-12-02T18:27:13.937Z,2.53
2018-12-02T18:29:42.160Z,2.60
2018-12-02T18:32:10.380Z,2.83
2018-12-02T18:34:38.580Z,2.57
2018-12-02T18:37:07.922Z,2.97
2018-12-02T18:39:36.069Z,2.90
2018-12-02T18:42:04.461Z,3.00
2018-12-02T18:44:33.002Z,2.30
2018-12-02T18:47:01.145Z,3.40
2018-12-02T18:49:29.496Z,2.87
2018-12-02T18:51:57.619Z,2.50
2018-12-02T18:54:25.789Z,3.57
2018-12-02T18:56:53.919Z,3.50
2018-12-02T18:59:22.057Z,3.00
2018-12-02T19:01:50.248Z,2.80
2018-12-02T19:04:18.422Z,3.37
2018-12-02T19:06:46.621Z,3.80
2018-12-02T19:09:14.868Z,2.50
2018-12-02T19:11:42.994Z,2.97
2018-12-02T19:14:11.209Z,3.13
2018-12-02T19:16:39.364Z,3.40
2018-12-02T19:19:07.790Z,2.90
2018-12-02T19:21:35.967Z,3.03
2018-12-02T19:24:04.164Z,2.70
2018-12-02T19:26:32.316Z,2.80
2018-12-02T19:29:00.464Z,3.40
2018-12-02T19:31:28.622Z,2.43
2018-12-02T19:33:57.020Z,3.43
2018-12-02T19:36:26.542Z,2.93
2018-12-02T19:38:54.702Z,3.00
2018-12-02T19:41:22.841Z,3.27
2018-12-02T19:43:50.997Z,2.63
2018-12-02T19:46:19.137Z,3.53
2018-12-02T19:48:47.308Z,2.60
2018-12-02T19:51:15.473Z,2.97
2018-12-02T19:53:43.653Z,2.77
2018-12-02T19:56:11.859Z,2.57
2018-12-02T19:58:39.997Z,2.70
2018-12-02T20:01:08.132Z,3.03
2018-12-02T20:03:36.276Z,3.77
2018-12-02T20:06:04.459Z,2.80
2018-12-02T20:08:32.608Z,2.57
2018-12-02T20:11:00.728Z,3.03
2018-12-02T20:13:28.890Z,2.70
2018-12-02T20:16:02.617Z,2.53
2018-12-02T20:18:30.796Z,2.90
2018-12-02T20:20:59.713Z,2.20
2018-12-02T20:23:33.612Z,2.53
2018-12-02T20:26:02.204Z,2.67
2018-12-02T20:28:32.316Z,3.27
2018-12-02T20:31:01.499Z,3.53
2018-12-02T20:33:29.655Z,3.90
2018-12-02T20:35:57.804Z,3.83
2018-12-02T20:38:25.997Z,5.40
2018-12-02T20:40:54.141Z,4.03
2018-12-02T20:43:22.269Z,3.33
2018-12-02T20:45:50.416Z,4.33
2018-12-02T20:48:18.559Z,3.63
2018-12-02T20:50:46.750Z,3.73
2018-12-02T20:53:16.192Z,3.77
2018-12-02T20:55:43.074Z,4.90
2018-12-02T20:58:11.208Z,3.80
2018-12-02T21:00:39.385Z,4.00
2018-12-02T21:03:09.197Z,5.03
2018-12-02T21:05:39.339Z,4.13
2018-12-02T21:08:07.481Z,3.37
2018-12-02T21:10:35.596Z,4.43
2018-12-02T21:13:03.741Z,3.50
2018-12-02T21:15:31.913Z,4.03
2018-12-02T21:18:00.100Z,4.13
2018-12-02T21:20:28.262Z,3.70
2018-12-02T21:22:56.401Z,3.00
2018-12-02T21:25:25.125Z,3.30
2018-12-02T21:27:53.288Z,3.00
2018-12-02T21:30:22.188Z,3.70
2018-12-02T21:32:50.335Z,2.63
2018-12-02T21:35:18.483Z,3.47
2018-12-02T21:37:46.992Z,3.23
2018-12-02T21:40:15.703Z,3.93
2018-12-02T21:42:43.872Z,3.27
2018-12-02T21:45:12.607Z,3.40
2018-12-02T21:47:41.623Z,3.33
2018-12-02T21:50:10.612Z,2.90
2018-12-02T21:52:38.760Z,3.17
2018-12-02T21:55:07.283Z,3.27
2018-12-02T21:57:35.755Z,3.10
2018-12-02T22:00:05.829Z,3.80
2018-12-02T22:02:33.960Z,3.27
2018-12-02T22:05:02.117Z,3.77
2018-12-02T22:07:30.909Z,3.17
2018-12-02T22:09:59.079Z,3.03
2018-12-02T22:12:27.240Z,3.10
2018-12-02T22:14:55.377Z,3.03
2018-12-02T22:17:23.507Z,2.50
2018-12-02T22:19:51.688Z,2.73
2018-12-02T22:22:19.842Z,2.87
2018-12-02T22:24:47.989Z,2.30
2018-12-02T22:27:16.156Z,2.43
2018-12-02T22:29:44.384Z,1.97
2018-12-02T22:32:12.511Z,3.03
2018-12-02T22:34:40.687Z,2.53
2018-12-02T22:37:08.812Z,2.30
2018-12-02T22:39:36.955Z,2.00
2018-12-02T22:42:05.276Z,2.63
2018-12-02T22:44:33.423Z,2.40
2018-12-02T22:47:01.552Z,2.77
2018-12-02T22:49:30.041Z,2.83
2018-12-02T22:51:58.180Z,2.63
2018-12-02T22:54:26.718Z,2.17
2018-12-02T22:56:54.895Z,3.03
2018-12-02T22:59:23.041Z,2.03
2018-12-02T23:01:56.508Z,2.40
2018-12-02T23:04:24.632Z,2.73
2018-12-02T23:06:52.753Z,2.70
2018-12-02T23:09:20.896Z,2.83
2018-12-02T23:11:49.032Z,3.17
2018-12-02T23:14:17.196Z,3.70
2018-12-02T23:16:50.847Z,2.43
2018-12-02T23:19:19.004Z,2.83
2018-12-02T23:21:47.237Z,2.60
2018-12-02T23:24:16.802Z,3.10
2018-12-02T23:26:50.788Z,2.80
2018-12-02T23:29:18.951Z,3.00
2018-12-02T23:31:47.071Z,2.70
2018-12-02T23:34:15.697Z,2.97
2018-12-02T23:36:43.845Z,2.80
2018-12-02T23:39:11.997Z,2.87
2018-12-02T23:41:40.412Z,2.77
2018-12-02T23:44:08.556Z,2.37
2018-12-02T23:46:36.707Z,2.60
2018-12-02T23:49:05.061Z,3.10
2018-12-02T23:51:33.217Z,2.23
2018-12-02T23:54:01.342Z,2.40
2018-12-02T23:56:29.472Z,3.53
2018-12-02T23:58:57.625Z,3.27
